sensor_id;sensor_type;location;lat;lon;timestamp;pressure;altitude;pressure_sealevel;temperature
22322;BMP180;11328;53.928;18.522;2024-01-30T00:01:59;101548.00;;;3.20
22322;BMP180;11328;53.928;18.522;2024-01-30T00:04:26;101555.00;;;3.10
22322;BMP180;11328;53.928;18.522;2024-01-30T00:06:53;101550.00;;;3.30
22322;BMP180;11328;53.928;18.522;2024-01-30T00:09:21;101545.00;;;3.20
22322;BMP180;11328;53.928;18.522;2024-01-30T00:11:48;101543.00;;;3.10
22322;BMP180;11328;53.928;18.522;2024-01-30T00:14:15;101538.00;;;3.10
22322;BMP180;11328;53.928;18.522;2024-01-30T00:16:42;101538.00;;;3.10
22322;BMP180;11328;53.928;18.522;2024-01-30T00:19:09;101544.00;;;3.20
22322;BMP180;11328;53.928;18.522;2024-01-30T00:21:36;101543.00;;;3.10
22322;BMP180;11328;53.928;18.522;2024-01-30T00:24:03;101534.00;;;3.10
22322;BMP180;11328;53.928;18.522;2024-01-30T00:26:31;101529.00;;;3.10
22322;BMP180;11328;53.928;18.522;2024-01-30T00:28:58;101530.00;;;3.10
22322;BMP180;11328;53.928;18.522;2024-01-30T00:31:25;101534.00;;;3.10
22322;BMP180;11328;53.928;18.522;2024-01-30T00:33:53;101527.00;;;3.20
22322;BMP180;11328;53.928;18.522;2024-01-30T00:36:20;101531.00;;;3.20
22322;BMP180;11328;53.928;18.522;2024-01-30T00:38:47;101533.00;;;3.20
22322;BMP180;11328;53.928;18.522;2024-01-30T00:41:14;101538.00;;;3.20
22322;BMP180;11328;53.928;18.522;2024-01-30T00:43:44;101540.00;;;3.20
22322;BMP180;11328;53.928;18.522;2024-01-30T00:46:11;101542.00;;;3.20
22322;BMP180;11328;53.928;18.522;2024-01-30T00:48:38;101532.00;;;3.10
22322;BMP180;11328;53.928;18.522;2024-01-30T00:51:05;101543.00;;;3.00
22322;BMP180;11328;53.928;18.522;2024-01-30T00:53:32;101533.00;;;3.00
22322;BMP180;11328;53.928;18.522;2024-01-30T00:55:59;101533.00;;;2.90
22322;BMP180;11328;53.928;18.522;2024-01-30T00:58:26;101536.00;;;2.90
22322;BMP180;11328;53.928;18.522;2024-01-30T01:00:53;101531.00;;;2.90
22322;BMP180;11328;53.928;18.522;2024-01-30T01:03:20;101537.00;;;3.00
22322;BMP180;11328;53.928;18.522;2024-01-30T01:05:48;101539.00;;;3.00
22322;BMP180;11328;53.928;18.522;2024-01-30T01:08:15;101543.00;;;3.00
22322;BMP180;11328;53.928;18.522;2024-01-30T01:10:42;101539.00;;;3.00
22322;BMP180;11328;53.928;18.522;2024-01-30T01:13:09;101536.00;;;3.10
22322;BMP180;11328;53.928;18.522;2024-01-30T01:15:36;101540.00;;;3.10
22322;BMP180;11328;53.928;18.522;2024-01-30T01:18:04;101538.00;;;3.00
22322;BMP180;11328;53.928;18.522;2024-01-30T01:20:31;101538.00;;;3.00
22322;BMP180;11328;53.928;18.522;2024-01-30T01:22:58;101533.00;;;3.00
22322;BMP180;11328;53.928;18.522;2024-01-30T01:25:25;101538.00;;;2.90
22322;BMP180;11328;53.928;18.522;2024-01-30T01:27:52;101524.00;;;2.90
22322;BMP180;11328;53.928;18.522;2024-01-30T01:30:20;101531.00;;;2.90
22322;BMP180;11328;53.928;18.522;2024-01-30T01:32:49;101538.00;;;2.90
22322;BMP180;11328;53.928;18.522;2024-01-30T01:35:28;101526.00;;;2.90
22322;BMP180;11328;53.928;18.522;2024-01-30T01:37:55;101531.00;;;2.90
22322;BMP180;11328;53.928;18.522;2024-01-30T01:40:26;101514.00;;;2.90
22322;BMP180;11328;53.928;18.522;2024-01-30T01:42:55;101539.00;;;2.90
22322;BMP180;11328;53.928;18.522;2024-01-30T01:45:22;101534.00;;;2.90
22322;BMP180;11328;53.928;18.522;2024-01-30T01:47:52;101528.00;;;2.80
22322;BMP180;11328;53.928;18.522;2024-01-30T01:50:21;101524.00;;;2.70
22322;BMP180;11328;53.928;18.522;2024-01-30T01:52:50;101532.00;;;2.70
22322;BMP180;11328;53.928;18.522;2024-01-30T01:55:21;101521.00;;;2.70
22322;BMP180;11328;53.928;18.522;2024-01-30T01:57:49;101516.00;;;2.70
22322;BMP180;11328;53.928;18.522;2024-01-30T02:00:18;101521.00;;;2.70
22322;BMP180;11328;53.928;18.522;2024-01-30T02:02:46;101520.00;;;2.70
22322;BMP180;11328;53.928;18.522;2024-01-30T02:05:15;101518.00;;;2.60
22322;BMP180;11328;53.928;18.522;2024-01-30T02:07:44;101516.00;;;2.70
22322;BMP180;11328;53.928;18.522;2024-01-30T02:10:11;101514.00;;;2.70
22322;BMP180;11328;53.928;18.522;2024-01-30T02:12:39;101485.00;;;2.70
22322;BMP180;11328;53.928;18.522;2024-01-30T02:15:07;101515.00;;;2.70
22322;BMP180;11328;53.928;18.522;2024-01-30T02:17:35;101513.00;;;2.70
22322;BMP180;11328;53.928;18.522;2024-01-30T02:20:02;101515.00;;;2.60
22322;BMP180;11328;53.928;18.522;2024-01-30T02:22:33;101514.00;;;2.70
22322;BMP180;11328;53.928;18.522;2024-01-30T02:25:01;101510.00;;;2.70
22322;BMP180;11328;53.928;18.522;2024-01-30T02:27:28;101508.00;;;2.70
22322;BMP180;11328;53.928;18.522;2024-01-30T02:29:55;101508.00;;;2.70
22322;BMP180;11328;53.928;18.522;2024-01-30T02:32:22;101502.00;;;2.70
22322;BMP180;11328;53.928;18.522;2024-01-30T02:34:49;101501.00;;;2.70
22322;BMP180;11328;53.928;18.522;2024-01-30T02:37:17;101503.00;;;2.80
22322;BMP180;11328;53.928;18.522;2024-01-30T02:39:44;101481.00;;;2.80
22322;BMP180;11328;53.928;18.522;2024-01-30T02:42:11;101499.00;;;2.90
22322;BMP180;11328;53.928;18.522;2024-01-30T02:44:38;101495.00;;;2.80
22322;BMP180;11328;53.928;18.522;2024-01-30T02:47:05;101497.00;;;2.90
22322;BMP180;11328;53.928;18.522;2024-01-30T02:49:32;101507.00;;;2.90
22322;BMP180;11328;53.928;18.522;2024-01-30T02:52:00;101500.00;;;3.10
22322;BMP180;11328;53.928;18.522;2024-01-30T02:54:27;101497.00;;;3.10
22322;BMP180;11328;53.928;18.522;2024-01-30T02:56:54;101497.00;;;3.20
22322;BMP180;11328;53.928;18.522;2024-01-30T02:59:21;101497.00;;;3.30
22322;BMP180;11328;53.928;18.522;2024-01-30T03:01:48;101498.00;;;3.20
22322;BMP180;11328;53.928;18.522;2024-01-30T03:04:15;101496.00;;;3.30
22322;BMP180;11328;53.928;18.522;2024-01-30T03:06:46;101460.00;;;3.40
22322;BMP180;11328;53.928;18.522;2024-01-30T03:09:19;101494.00;;;3.40
22322;BMP180;11328;53.928;18.522;2024-01-30T03:11:46;101492.00;;;3.30
22322;BMP180;11328;53.928;18.522;2024-01-30T03:14:13;101490.00;;;3.20
22322;BMP180;11328;53.928;18.522;2024-01-30T03:16:40;101480.00;;;3.20
22322;BMP180;11328;53.928;18.522;2024-01-30T03:19:07;101484.00;;;3.30
22322;BMP180;11328;53.928;18.522;2024-01-30T03:21:37;101487.00;;;3.40
22322;BMP180;11328;53.928;18.522;2024-01-30T03:24:04;101490.00;;;3.30
22322;BMP180;11328;53.928;18.522;2024-01-30T03:26:31;101482.00;;;3.30
22322;BMP180;11328;53.928;18.522;2024-01-30T03:28:58;101481.00;;;3.40
22322;BMP180;11328;53.928;18.522;2024-01-30T03:31:25;101480.00;;;3.40
22322;BMP180;11328;53.928;18.522;2024-01-30T03:33:52;101488.00;;;3.50
22322;BMP180;11328;53.928;18.522;2024-01-30T03:36:20;101475.00;;;3.40
22322;BMP180;11328;53.928;18.522;2024-01-30T03:38:47;101480.00;;;3.40
22322;BMP180;11328;53.928;18.522;2024-01-30T03:41:14;101490.00;;;3.50
22322;BMP180;11328;53.928;18.522;2024-01-30T03:43:41;101486.00;;;3.30
22322;BMP180;11328;53.928;18.522;2024-01-30T03:46:08;101483.00;;;3.20
22322;BMP180;11328;53.928;18.522;2024-01-30T03:48:35;101478.00;;;3.20
22322;BMP180;11328;53.928;18.522;2024-01-30T03:51:02;101480.00;;;3.10
22322;BMP180;11328;53.928;18.522;2024-01-30T03:53:29;101501.00;;;3.10
22322;BMP180;11328;53.928;18.522;2024-01-30T03:55:57;101482.00;;;3.10
22322;BMP180;11328;53.928;18.522;2024-01-30T03:58:24;101490.00;;;3.10
22322;BMP180;11328;53.928;18.522;2024-01-30T04:00:51;101498.00;;;3.30
22322;BMP180;11328;53.928;18.522;2024-01-30T04:03:18;101491.00;;;3.30
22322;BMP180;11328;53.928;18.522;2024-01-30T04:05:45;101496.00;;;3.30
22322;BMP180;11328;53.928;18.522;2024-01-30T04:08:12;101493.00;;;3.20
22322;BMP180;11328;53.928;18.522;2024-01-30T04:10:40;101509.00;;;3.10
22322;BMP180;11328;53.928;18.522;2024-01-30T04:13:07;101512.00;;;2.90
22322;BMP180;11328;53.928;18.522;2024-01-30T04:15:38;101495.00;;;2.70
22322;BMP180;11328;53.928;18.522;2024-01-30T04:18:05;101494.00;;;2.80
22322;BMP180;11328;53.928;18.522;2024-01-30T04:20:32;101487.00;;;2.70
22322;BMP180;11328;53.928;18.522;2024-01-30T04:22:59;101497.00;;;2.70
22322;BMP180;11328;53.928;18.522;2024-01-30T04:25:26;101498.00;;;2.70
22322;BMP180;11328;53.928;18.522;2024-01-30T04:27:53;101494.00;;;2.70
22322;BMP180;11328;53.928;18.522;2024-01-30T04:30:20;101494.00;;;2.70
22322;BMP180;11328;53.928;18.522;2024-01-30T04:32:47;101496.00;;;2.70
22322;BMP180;11328;53.928;18.522;2024-01-30T04:35:14;101461.00;;;2.60
22322;BMP180;11328;53.928;18.522;2024-01-30T04:37:41;101491.00;;;2.60
22322;BMP180;11328;53.928;18.522;2024-01-30T04:40:09;101485.00;;;2.60
22322;BMP180;11328;53.928;18.522;2024-01-30T04:42:36;101487.00;;;2.50
22322;BMP180;11328;53.928;18.522;2024-01-30T04:45:05;101481.00;;;2.50
22322;BMP180;11328;53.928;18.522;2024-01-30T04:47:32;101488.00;;;2.50
22322;BMP180;11328;53.928;18.522;2024-01-30T04:49:59;101493.00;;;2.40
22322;BMP180;11328;53.928;18.522;2024-01-30T04:52:26;101495.00;;;2.40
22322;BMP180;11328;53.928;18.522;2024-01-30T04:54:53;101495.00;;;2.40
22322;BMP180;11328;53.928;18.522;2024-01-30T04:57:20;101489.00;;;2.30
22322;BMP180;11328;53.928;18.522;2024-01-30T04:59:47;101493.00;;;2.20
22322;BMP180;11328;53.928;18.522;2024-01-30T05:02:15;101481.00;;;2.20
22322;BMP180;11328;53.928;18.522;2024-01-30T05:04:42;101488.00;;;2.20
22322;BMP180;11328;53.928;18.522;2024-01-30T05:07:09;101475.00;;;2.20
22322;BMP180;11328;53.928;18.522;2024-01-30T05:09:36;101477.00;;;2.20
22322;BMP180;11328;53.928;18.522;2024-01-30T05:12:03;101466.00;;;2.10
22322;BMP180;11328;53.928;18.522;2024-01-30T05:14:30;101465.00;;;2.10
22322;BMP180;11328;53.928;18.522;2024-01-30T05:16:57;101468.00;;;2.00
22322;BMP180;11328;53.928;18.522;2024-01-30T05:19:24;101462.00;;;2.00
22322;BMP180;11328;53.928;18.522;2024-01-30T05:21:51;101466.00;;;2.00
22322;BMP180;11328;53.928;18.522;2024-01-30T05:24:18;101471.00;;;2.00
22322;BMP180;11328;53.928;18.522;2024-01-30T05:26:47;101464.00;;;2.00
22322;BMP180;11328;53.928;18.522;2024-01-30T05:29:14;101467.00;;;2.00
22322;BMP180;11328;53.928;18.522;2024-01-30T05:31:41;101463.00;;;2.10
22322;BMP180;11328;53.928;18.522;2024-01-30T05:34:08;101461.00;;;2.00
22322;BMP180;11328;53.928;18.522;2024-01-30T05:36:36;101451.00;;;2.00
22322;BMP180;11328;53.928;18.522;2024-01-30T05:39:03;101470.00;;;2.10
22322;BMP180;11328;53.928;18.522;2024-01-30T05:41:33;101467.00;;;1.90
22322;BMP180;11328;53.928;18.522;2024-01-30T05:44:00;101474.00;;;1.90
22322;BMP180;11328;53.928;18.522;2024-01-30T05:46:27;101472.00;;;1.90
22322;BMP180;11328;53.928;18.522;2024-01-30T05:48:55;101477.00;;;1.90
22322;BMP180;11328;53.928;18.522;2024-01-30T05:51:22;101483.00;;;2.00
22322;BMP180;11328;53.928;18.522;2024-01-30T05:53:49;101478.00;;;2.00
22322;BMP180;11328;53.928;18.522;2024-01-30T05:56:16;101478.00;;;2.10
22322;BMP180;11328;53.928;18.522;2024-01-30T05:58:43;101486.00;;;2.10
22322;BMP180;11328;53.928;18.522;2024-01-30T06:01:10;101478.00;;;2.10
22322;BMP180;11328;53.928;18.522;2024-01-30T06:03:37;101482.00;;;2.00
22322;BMP180;11328;53.928;18.522;2024-01-30T06:06:05;101482.00;;;1.90
22322;BMP180;11328;53.928;18.522;2024-01-30T06:08:32;101485.00;;;2.00
22322;BMP180;11328;53.928;18.522;2024-01-30T06:10:59;101487.00;;;2.00
22322;BMP180;11328;53.928;18.522;2024-01-30T06:13:27;101492.00;;;2.00
22322;BMP180;11328;53.928;18.522;2024-01-30T06:15:54;101488.00;;;2.10
22322;BMP180;11328;53.928;18.522;2024-01-30T06:18:21;101489.00;;;2.00
22322;BMP180;11328;53.928;18.522;2024-01-30T06:20:48;101486.00;;;2.00
22322;BMP180;11328;53.928;18.522;2024-01-30T06:23:15;101494.00;;;2.10
22322;BMP180;11328;53.928;18.522;2024-01-30T06:25:42;101494.00;;;2.10
22322;BMP180;11328;53.928;18.522;2024-01-30T06:28:09;101494.00;;;2.10
22322;BMP180;11328;53.928;18.522;2024-01-30T06:30:36;101489.00;;;2.10
22322;BMP180;11328;53.928;18.522;2024-01-30T06:33:03;101487.00;;;2.10
22322;BMP180;11328;53.928;18.522;2024-01-30T06:35:30;101484.00;;;2.10
22322;BMP180;11328;53.928;18.522;2024-01-30T06:37:57;101488.00;;;2.10
22322;BMP180;11328;53.928;18.522;2024-01-30T06:40:24;101489.00;;;2.20
22322;BMP180;11328;53.928;18.522;2024-01-30T06:42:51;101484.00;;;2.10
22322;BMP180;11328;53.928;18.522;2024-01-30T06:45:18;101491.00;;;2.20
22322;BMP180;11328;53.928;18.522;2024-01-30T06:47:45;101482.00;;;2.10
22322;BMP180;11328;53.928;18.522;2024-01-30T06:50:12;101493.00;;;2.20
22322;BMP180;11328;53.928;18.522;2024-01-30T06:52:39;101488.00;;;2.10
22322;BMP180;11328;53.928;18.522;2024-01-30T06:55:06;101489.00;;;2.20
22322;BMP180;11328;53.928;18.522;2024-01-30T06:57:33;101491.00;;;2.30
22322;BMP180;11328;53.928;18.522;2024-01-30T07:00:01;101481.00;;;2.40
22322;BMP180;11328;53.928;18.522;2024-01-30T07:02:28;101491.00;;;2.30
22322;BMP180;11328;53.928;18.522;2024-01-30T07:04:55;101489.00;;;2.40
22322;BMP180;11328;53.928;18.522;2024-01-30T07:07:22;101477.00;;;2.40
22322;BMP180;11328;53.928;18.522;2024-01-30T07:09:49;101490.00;;;2.40
22322;BMP180;11328;53.928;18.522;2024-01-30T07:12:19;101486.00;;;2.40
22322;BMP180;11328;53.928;18.522;2024-01-30T07:14:46;101490.00;;;2.50
22322;BMP180;11328;53.928;18.522;2024-01-30T07:17:13;101502.00;;;2.50
22322;BMP180;11328;53.928;18.522;2024-01-30T07:19:40;101494.00;;;2.50
22322;BMP180;11328;53.928;18.522;2024-01-30T07:22:08;101487.00;;;2.60
22322;BMP180;11328;53.928;18.522;2024-01-30T07:24:35;101495.00;;;2.70
22322;BMP180;11328;53.928;18.522;2024-01-30T07:27:03;101502.00;;;2.70
22322;BMP180;11328;53.928;18.522;2024-01-30T07:29:30;101503.00;;;2.80
22322;BMP180;11328;53.928;18.522;2024-01-30T07:31:57;101498.00;;;2.90
22322;BMP180;11328;53.928;18.522;2024-01-30T07:34:24;101514.00;;;2.80
22322;BMP180;11328;53.928;18.522;2024-01-30T07:36:51;101503.00;;;2.80
22322;BMP180;11328;53.928;18.522;2024-01-30T07:39:22;101497.00;;;2.80
22322;BMP180;11328;53.928;18.522;2024-01-30T07:41:49;101496.00;;;2.80
22322;BMP180;11328;53.928;18.522;2024-01-30T07:44:16;101496.00;;;2.80
22322;BMP180;11328;53.928;18.522;2024-01-30T07:46:43;101501.00;;;2.80
22322;BMP180;11328;53.928;18.522;2024-01-30T07:49:10;101498.00;;;2.80
22322;BMP180;11328;53.928;18.522;2024-01-30T07:51:37;101501.00;;;2.90
22322;BMP180;11328;53.928;18.522;2024-01-30T07:54:04;101505.00;;;2.90
22322;BMP180;11328;53.928;18.522;2024-01-30T07:56:31;101499.00;;;2.80
22322;BMP180;11328;53.928;18.522;2024-01-30T07:58:58;101496.00;;;2.80
22322;BMP180;11328;53.928;18.522;2024-01-30T08:01:25;101498.00;;;2.70
22322;BMP180;11328;53.928;18.522;2024-01-30T08:03:52;101502.00;;;2.70
22322;BMP180;11328;53.928;18.522;2024-01-30T08:06:19;101498.00;;;2.70
22322;BMP180;11328;53.928;18.522;2024-01-30T08:08:47;101497.00;;;2.70
22322;BMP180;11328;53.928;18.522;2024-01-30T08:11:14;101486.00;;;2.60
22322;BMP180;11328;53.928;18.522;2024-01-30T08:13:41;101491.00;;;2.70
22322;BMP180;11328;53.928;18.522;2024-01-30T08:16:08;101493.00;;;2.70
22322;BMP180;11328;53.928;18.522;2024-01-30T08:18:40;101495.00;;;2.60
22322;BMP180;11328;53.928;18.522;2024-01-30T08:21:07;101487.00;;;2.70
22322;BMP180;11328;53.928;18.522;2024-01-30T08:23:34;101483.00;;;2.70
22322;BMP180;11328;53.928;18.522;2024-01-30T08:26:01;101475.00;;;2.80
22322;BMP180;11328;53.928;18.522;2024-01-30T08:28:29;101481.00;;;2.80
22322;BMP180;11328;53.928;18.522;2024-01-30T08:30:56;101491.00;;;2.90
22322;BMP180;11328;53.928;18.522;2024-01-30T08:33:23;101487.00;;;2.80
22322;BMP180;11328;53.928;18.522;2024-01-30T08:35:50;101491.00;;;3.00
22322;BMP180;11328;53.928;18.522;2024-01-30T08:38:17;101494.00;;;3.00
22322;BMP180;11328;53.928;18.522;2024-01-30T08:40:45;101498.00;;;3.10
22322;BMP180;11328;53.928;18.522;2024-01-30T08:43:12;101487.00;;;3.00
22322;BMP180;11328;53.928;18.522;2024-01-30T08:45:39;101499.00;;;3.10
22322;BMP180;11328;53.928;18.522;2024-01-30T08:48:07;101501.00;;;3.10
22322;BMP180;11328;53.928;18.522;2024-01-30T08:50:34;101500.00;;;3.20
22322;BMP180;11328;53.928;18.522;2024-01-30T08:53:01;101502.00;;;3.20
22322;BMP180;11328;53.928;18.522;2024-01-30T08:55:29;101498.00;;;3.30
22322;BMP180;11328;53.928;18.522;2024-01-30T08:57:56;101492.00;;;3.30
22322;BMP180;11328;53.928;18.522;2024-01-30T09:00:24;101489.00;;;3.40
22322;BMP180;11328;53.928;18.522;2024-01-30T09:02:51;101495.00;;;3.40
22322;BMP180;11328;53.928;18.522;2024-01-30T09:05:18;101498.00;;;3.50
22322;BMP180;11328;53.928;18.522;2024-01-30T09:07:45;101494.00;;;3.50
22322;BMP180;11328;53.928;18.522;2024-01-30T09:10:13;101495.00;;;3.50
22322;BMP180;11328;53.928;18.522;2024-01-30T09:12:47;101497.00;;;3.50
22322;BMP180;11328;53.928;18.522;2024-01-30T09:15:15;101497.00;;;3.60
22322;BMP180;11328;53.928;18.522;2024-01-30T09:17:42;101494.00;;;3.70
22322;BMP180;11328;53.928;18.522;2024-01-30T09:20:09;101493.00;;;3.60
22322;BMP180;11328;53.928;18.522;2024-01-30T09:22:37;101494.00;;;3.70
22322;BMP180;11328;53.928;18.522;2024-01-30T09:25:05;101489.00;;;3.70
22322;BMP180;11328;53.928;18.522;2024-01-30T09:27:32;101486.00;;;3.80
22322;BMP180;11328;53.928;18.522;2024-01-30T09:29:59;101491.00;;;3.80
22322;BMP180;11328;53.928;18.522;2024-01-30T09:32:26;101497.00;;;3.90
22322;BMP180;11328;53.928;18.522;2024-01-30T09:34:53;101499.00;;;4.00
22322;BMP180;11328;53.928;18.522;2024-01-30T09:37:20;101502.00;;;4.00
22322;BMP180;11328;53.928;18.522;2024-01-30T09:39:50;101500.00;;;4.00
22322;BMP180;11328;53.928;18.522;2024-01-30T09:42:36;101502.00;;;4.10
22322;BMP180;11328;53.928;18.522;2024-01-30T09:45:06;101498.00;;;4.10
22322;BMP180;11328;53.928;18.522;2024-01-30T09:47:43;101493.00;;;4.10
22322;BMP180;11328;53.928;18.522;2024-01-30T09:50:15;101500.00;;;4.20
22322;BMP180;11328;53.928;18.522;2024-01-30T09:52:46;101508.00;;;4.30
22322;BMP180;11328;53.928;18.522;2024-01-30T09:55:14;101497.00;;;4.30
22322;BMP180;11328;53.928;18.522;2024-01-30T09:57:42;101489.00;;;4.40
22322;BMP180;11328;53.928;18.522;2024-01-30T10:00:10;101499.00;;;4.50
22322;BMP180;11328;53.928;18.522;2024-01-30T10:02:39;101495.00;;;4.70
22322;BMP180;11328;53.928;18.522;2024-01-30T10:05:07;101450.00;;;4.70
22322;BMP180;11328;53.928;18.522;2024-01-30T10:07:35;101499.00;;;4.80
22322;BMP180;11328;53.928;18.522;2024-01-30T10:10:02;101500.00;;;4.90
22322;BMP180;11328;53.928;18.522;2024-01-30T10:12:29;101495.00;;;4.90
22322;BMP180;11328;53.928;18.522;2024-01-30T10:14:57;101489.00;;;4.90
22322;BMP180;11328;53.928;18.522;2024-01-30T10:17:25;101492.00;;;4.90
22322;BMP180;11328;53.928;18.522;2024-01-30T10:20:00;101482.00;;;4.90
22322;BMP180;11328;53.928;18.522;2024-01-30T10:22:28;101488.00;;;4.90
22322;BMP180;11328;53.928;18.522;2024-01-30T10:25:00;101495.00;;;5.00
22322;BMP180;11328;53.928;18.522;2024-01-30T10:27:32;101473.00;;;5.10
22322;BMP180;11328;53.928;18.522;2024-01-30T10:29:59;101496.00;;;5.20
22322;BMP180;11328;53.928;18.522;2024-01-30T10:32:27;101489.00;;;5.20
22322;BMP180;11328;53.928;18.522;2024-01-30T10:34:54;101492.00;;;5.20
22322;BMP180;11328;53.928;18.522;2024-01-30T10:37:25;101487.00;;;5.20
22322;BMP180;11328;53.928;18.522;2024-01-30T10:39:54;101469.00;;;5.30
22322;BMP180;11328;53.928;18.522;2024-01-30T10:42:26;101480.00;;;5.40
22322;BMP180;11328;53.928;18.522;2024-01-30T10:45:06;101476.00;;;5.50
22322;BMP180;11328;53.928;18.522;2024-01-30T10:47:36;101483.00;;;5.60
22322;BMP180;11328;53.928;18.522;2024-01-30T10:50:05;101473.00;;;5.50
22322;BMP180;11328;53.928;18.522;2024-01-30T10:52:34;101475.00;;;5.60
22322;BMP180;11328;53.928;18.522;2024-01-30T10:55:04;101462.00;;;5.80
22322;BMP180;11328;53.928;18.522;2024-01-30T10:57:35;101459.00;;;5.90
22322;BMP180;11328;53.928;18.522;2024-01-30T11:00:13;101458.00;;;6.00
22322;BMP180;11328;53.928;18.522;2024-01-30T11:02:45;101458.00;;;6.10
22322;BMP180;11328;53.928;18.522;2024-01-30T11:05:13;101426.00;;;6.10
22322;BMP180;11328;53.928;18.522;2024-01-30T11:07:42;101465.00;;;6.20
22322;BMP180;11328;53.928;18.522;2024-01-30T11:10:09;101459.00;;;6.20
22322;BMP180;11328;53.928;18.522;2024-01-30T11:12:41;101456.00;;;6.20
22322;BMP180;11328;53.928;18.522;2024-01-30T11:15:14;101461.00;;;6.20
22322;BMP180;11328;53.928;18.522;2024-01-30T11:20:15;101459.00;;;6.20
22322;BMP180;11328;53.928;18.522;2024-01-30T11:22:53;101457.00;;;6.30
22322;BMP180;11328;53.928;18.522;2024-01-30T11:25:22;101460.00;;;6.40
22322;BMP180;11328;53.928;18.522;2024-01-30T11:27:53;101461.00;;;6.50
22322;BMP180;11328;53.928;18.522;2024-01-30T11:30:32;101453.00;;;6.60
22322;BMP180;11328;53.928;18.522;2024-01-30T11:33:08;101457.00;;;6.60
22322;BMP180;11328;53.928;18.522;2024-01-30T11:35:44;101460.00;;;6.70
22322;BMP180;11328;53.928;18.522;2024-01-30T11:38:15;101458.00;;;6.60
22322;BMP180;11328;53.928;18.522;2024-01-30T11:40:44;101451.00;;;6.70
22322;BMP180;11328;53.928;18.522;2024-01-30T11:43:11;101446.00;;;6.70
22322;BMP180;11328;53.928;18.522;2024-01-30T11:45:38;101456.00;;;6.80
22322;BMP180;11328;53.928;18.522;2024-01-30T11:48:07;101443.00;;;6.90
22322;BMP180;11328;53.928;18.522;2024-01-30T11:50:39;101436.00;;;6.90
22322;BMP180;11328;53.928;18.522;2024-01-30T11:53:07;101435.00;;;6.90
22322;BMP180;11328;53.928;18.522;2024-01-30T11:55:34;101430.00;;;7.00
22322;BMP180;11328;53.928;18.522;2024-01-30T11:58:04;101439.00;;;7.10
22322;BMP180;11328;53.928;18.522;2024-01-30T12:00:31;101433.00;;;7.20
22322;BMP180;11328;53.928;18.522;2024-01-30T12:03:00;101431.00;;;7.30
22322;BMP180;11328;53.928;18.522;2024-01-30T12:05:28;101430.00;;;7.30
22322;BMP180;11328;53.928;18.522;2024-01-30T12:07:57;101419.00;;;7.40
22322;BMP180;11328;53.928;18.522;2024-01-30T12:10:27;101421.00;;;7.30
22322;BMP180;11328;53.928;18.522;2024-01-30T12:12:54;101413.00;;;7.30
22322;BMP180;11328;53.928;18.522;2024-01-30T12:15:22;101416.00;;;7.40
22322;BMP180;11328;53.928;18.522;2024-01-30T12:17:50;101415.00;;;7.40
22322;BMP180;11328;53.928;18.522;2024-01-30T12:20:20;101403.00;;;7.40
22322;BMP180;11328;53.928;18.522;2024-01-30T12:23:03;101408.00;;;7.50
22322;BMP180;11328;53.928;18.522;2024-01-30T12:25:32;101399.00;;;7.50
22322;BMP180;11328;53.928;18.522;2024-01-30T12:27:59;101396.00;;;7.50
22322;BMP180;11328;53.928;18.522;2024-01-30T12:30:28;101395.00;;;7.50
22322;BMP180;11328;53.928;18.522;2024-01-30T12:32:55;101402.00;;;7.50
22322;BMP180;11328;53.928;18.522;2024-01-30T12:35:23;101390.00;;;7.40
22322;BMP180;11328;53.928;18.522;2024-01-30T12:37:50;101394.00;;;7.40
22322;BMP180;11328;53.928;18.522;2024-01-30T12:40:18;101390.00;;;7.40
22322;BMP180;11328;53.928;18.522;2024-01-30T12:42:48;101389.00;;;7.50
22322;BMP180;11328;53.928;18.522;2024-01-30T12:45:16;101398.00;;;7.50
22322;BMP180;11328;53.928;18.522;2024-01-30T12:47:48;101387.00;;;7.50
22322;BMP180;11328;53.928;18.522;2024-01-30T12:50:15;101392.00;;;7.50
22322;BMP180;11328;53.928;18.522;2024-01-30T12:52:44;101396.00;;;7.60
22322;BMP180;11328;53.928;18.522;2024-01-30T12:55:15;101394.00;;;7.70
22322;BMP180;11328;53.928;18.522;2024-01-30T12:57:42;101407.00;;;7.70
22322;BMP180;11328;53.928;18.522;2024-01-30T13:00:10;101409.00;;;7.70
22322;BMP180;11328;53.928;18.522;2024-01-30T13:02:37;101408.00;;;7.70
22322;BMP180;11328;53.928;18.522;2024-01-30T13:05:04;101397.00;;;7.70
22322;BMP180;11328;53.928;18.522;2024-01-30T13:07:32;101367.00;;;7.70
22322;BMP180;11328;53.928;18.522;2024-01-30T13:09:59;101399.00;;;7.60
22322;BMP180;11328;53.928;18.522;2024-01-30T13:12:30;101393.00;;;7.50
22322;BMP180;11328;53.928;18.522;2024-01-30T13:14:59;101393.00;;;7.70
22322;BMP180;11328;53.928;18.522;2024-01-30T13:17:34;101389.00;;;7.80
22322;BMP180;11328;53.928;18.522;2024-01-30T13:20:07;101389.00;;;7.80
22322;BMP180;11328;53.928;18.522;2024-01-30T13:22:38;101392.00;;;7.80
22322;BMP180;11328;53.928;18.522;2024-01-30T13:25:06;101394.00;;;7.80
22322;BMP180;11328;53.928;18.522;2024-01-30T13:27:36;101396.00;;;7.70
22322;BMP180;11328;53.928;18.522;2024-01-30T13:30:03;101395.00;;;7.80
22322;BMP180;11328;53.928;18.522;2024-01-30T13:32:31;101392.00;;;7.80
22322;BMP180;11328;53.928;18.522;2024-01-30T13:34:58;101399.00;;;7.60
22322;BMP180;11328;53.928;18.522;2024-01-30T13:37:25;101397.00;;;7.60
22322;BMP180;11328;53.928;18.522;2024-01-30T13:39:52;101388.00;;;7.60
22322;BMP180;11328;53.928;18.522;2024-01-30T13:42:19;101384.00;;;7.50
22322;BMP180;11328;53.928;18.522;2024-01-30T13:44:46;101380.00;;;7.50
22322;BMP180;11328;53.928;18.522;2024-01-30T13:47:13;101380.00;;;7.50
22322;BMP180;11328;53.928;18.522;2024-01-30T13:49:40;101381.00;;;7.50
22322;BMP180;11328;53.928;18.522;2024-01-30T13:52:08;101385.00;;;7.50
22322;BMP180;11328;53.928;18.522;2024-01-30T13:54:35;101385.00;;;7.40
22322;BMP180;11328;53.928;18.522;2024-01-30T13:57:02;101379.00;;;7.50
22322;BMP180;11328;53.928;18.522;2024-01-30T13:59:29;101384.00;;;7.50
22322;BMP180;11328;53.928;18.522;2024-01-30T14:01:56;101373.00;;;7.60
22322;BMP180;11328;53.928;18.522;2024-01-30T14:04:23;101373.00;;;7.70